Thursday, January 18, 2018, 8:55 PM EST
Back to Local

KJYO, Leesburg / Godfrey

Location: Leesburg, VA, United States Lat: 39.083
Local Time: 8:55 PM EST ( 1:55 GMT) Lon: -77.567
Time Zone: US/Eastern Elev: 390 ft

Show me the last for .
Show Coded

Time T Td Feel RH Dir Speed Gust Alt SLP Vis Weather Sky Remarks
2018-01-18 20:35 39 9 34 27 340° 8 - 30.10 - 10 CLR None
2018-01-18 20:15 39 9 34 27 320° 8 - 30.09 - 10 CLR None
2018-01-18 19:55 39 9 30 27 320° 10 20 30.09 - 10 CLR None
2018-01-18 19:35 39 9 32 27 330° 10 - 30.10 - 10 CLR None
2018-01-18 19:15 39 9 30 27 320° 14 17 30.09 - 10 CLR None
2018-01-18 18:55 41 9 32 25 310° 14 18 30.09 - 10 CLR None
2018-01-18 18:35 41 7 37 23 340° 6 - 30.08 - 10 CLR None
2018-01-18 18:15 41 7 39 23 360° 3 - 30.08 - 10 CLR None
2018-01-18 17:55 41 7 38 23 360° 5 - 30.07 - 10 CLR None
2018-01-18 17:35 43 9 35 24 350° 6 17 30.06 - 10 CLR None
2018-01-18 17:15 43 9 37 24 330° 10 - 30.05 - 10 CLR None
2018-01-18 16:55 43 9 34 24 310° 12 22 30.04 - 10 CLR None
2018-01-18 16:35 45 9 37 22 310° 15 20 30.04 - 10 CLR None
2018-01-18 16:15 45 10 38 24 310° 14 - 30.04 - 10 CLR None
2018-01-18 15:55 45 10 37 24 290° 13 17 30.03 - 10 CLR None
2018-01-18 15:35 45 10 37 24 300° 9 17 30.03 - 10 CLR None
2018-01-18 15:15 45 10 36 24 330° 14 22 30.03 - 10 CLR None
2018-01-18 14:55 45 10 36 24 300° 10 22 30.04 - 10 CLR None
2018-01-18 14:35 45 10 36 24 310° 14 22 30.04 - 10 CLR None
2018-01-18 14:15 45 10 36 24 290° 12 24 30.05 - 10 CLR None
2018-01-18 13:55 45 10 36 24 320° 15 22 30.06 - 10 CLR None
2018-01-18 13:35 45 12 36 26 320° 16 22 30.06 - 10 CLR None
2018-01-18 13:15 43 12 33 28 290° 18 24 30.08 - 10 CLR None
2018-01-18 12:55 43 10 33 26 310° 18 25 30.08 - 10 CLR None
2018-01-18 12:35 41 12 30 30 310° 16 26 30.09 - 10 CLR None
2018-01-18 12:15 41 10 30 27 300° 18 28 30.11 - 10 CLR None
2018-01-18 11:55 37 10 25 32 300° 22 28 30.12 - 10 CLR None
2018-01-18 11:35 37 10 25 32 300° 22 28 30.14 - 10 CLR None
2018-01-18 11:15 36 10 24 34 290° 5 22 30.16 - 10 CLR None
2018-01-18 10:55 34 10 21 37 300° 21 28 30.17 - 10 CLR None
2018-01-18 10:30 32 10 19 39 310° 15 23 30.18 - 10 CLR None
2018-01-18 10:15 32 10 20 39 310° 16 20 30.18 - 10 CLR None
2018-01-18 09:55 32 9 18 36 320° 20 29 30.19 - 10 CLR None
2018-01-18 09:35 30 9 15 39 320° 22 31 30.18 - 10 CLR None
2018-01-18 09:15 28 9 13 42 320° 15 29 30.18 - 10 CLR None
2018-01-18 08:55 28 10 12 46 320° 21 32 30.18 - 10 CLR None
2018-01-18 08:35 27 10 10 49 310° 23 32 30.18 - 10 CLR None
2018-01-18 08:15 25 10 10 53 320° 17 21 30.19 - 10 CLR None
2018-01-18 07:55 23 10 9 57 310° 13 18 30.20 - 10 CLR None
2018-01-18 07:35 21 10 10 62 320° 10 - 30.20 - 10 CLR None
2018-01-18 07:15 21 10 12 62 310° 8 - 30.20 - 10 CLR None
2018-01-18 06:55 21 9 11 57 320° 9 - 30.19 - 10 CLR None
2018-01-18 06:35 21 9 10 57 310° 10 - 30.19 - 10 CLR None
2018-01-18 06:15 21 10 7 62 320° 14 17 30.18 - 10 CLR None
2018-01-18 05:55 21 9 6 57 330° 13 20 30.18 - 10 CLR None
2018-01-18 05:35 21 9 5 57 330° 14 22 30.18 - 10 CLR None
2018-01-18 05:15 19 10 4 67 330° 14 17 30.18 - 10 CLR None
2018-01-18 04:55 19 10 4 67 320° 14 17 30.17 - 10 CLR None
2018-01-18 04:35 19 10 4 67 350° 7 17 30.17 - 10 CLR None
2018-01-18 04:15 19 10 4 67 330° 10 20 30.17 - 10 CLR None
2018-01-18 03:55 19 10 7 67 330° 12 - 30.18 - 10 CLR None
2018-01-18 03:35 19 10 2 67 330° 14 23 30.19 - 10 CLR None
2018-01-18 03:15 19 10 2 67 340° 17 23 30.20 - 10 CLR None
2018-01-18 02:55 19 10 1 67 330° 17 29 30.21 - 10 CLR None
2018-01-18 02:35 19 10 3 67 340° 15 22 30.23 - 10 CLR None
2018-01-18 02:15 19 10 13 67 350° 5 - 30.24 - 10 CLR None
2018-01-18 01:55 19 10 9 67 320° 9 - 30.25 - 10 CLR None
2018-01-18 01:35 19 10 8 67 330° 10 - 30.25 - 10 CLR None
2018-01-18 01:15 19 10 9 67 330° 9 - 30.26 - 10 CLR None
2018-01-18 00:55 18 10 6 72 320° 9 - 30.27 - 10 CLR None
2018-01-18 00:35 19 10 9 67 330° 8 - 30.28 - 10 CLR None
2018-01-18 00:15 19 10 7 67 330° 13 - 30.28 - 10 CLR None
2018-01-17 23:55 19 10 8 67 330° 10 - 30.29 - 10 SCT090 None
2018-01-17 23:35 19 10 10 67 320° 7 - 30.30 - 10 BKN090 None
2018-01-17 23:15 19 10 7 67 320° 12 - 30.31 - 10 SCT090 None
2018-01-17 22:55 19 9 7 62 340° 13 - 30.31 - 10 OVC090 None
2018-01-17 22:35 21 9 7 57 340° 13 16 30.31 - 10 OVC090 None
2018-01-17 22:15 21 9 5 57 350° 12 22 30.32 - 10 OVC080 None
2018-01-17 21:55 21 10 6 62 340° 12 18 30.33 - 10 OVC080 None
2018-01-17 21:35 21 10 7 62 340° 14 17 30.33 - 10 BKN080 None
2018-01-17 21:15 21 10 9 62 340° 13 - 30.33 - 10 SCT080 None

Support USWX by starting your Amazon purchase here.